sensor_id;sensor_type;location;lat;lon;timestamp;pressure;altitude;pressure_sealevel;temperature;humidity
39954;BME280;25631;51.516;-0.470;2023-03-21T00:01:21;101085.11;;;8.35;49.15
39954;BME280;25631;51.516;-0.470;2023-03-21T00:03:58;101084.13;;;8.34;49.03
39954;BME280;25631;51.516;-0.470;2023-03-21T00:06:34;101080.95;;;8.39;48.98
39954;BME280;25631;51.516;-0.470;2023-03-21T00:09:10;101078.01;;;8.72;48.99
39954;BME280;25631;51.516;-0.470;2023-03-21T00:11:47;101078.15;;;8.57;48.95
39954;BME280;25631;51.516;-0.470;2023-03-21T00:14:24;101075.96;;;8.47;48.88
39954;BME280;25631;51.516;-0.470;2023-03-21T00:17:00;101074.99;;;8.60;48.93
39954;BME280;25631;51.516;-0.470;2023-03-21T00:19:37;101067.73;;;8.51;48.85
39954;BME280;25631;51.516;-0.470;2023-03-21T00:22:14;101064.96;;;8.58;48.83
39954;BME280;25631;51.516;-0.470;2023-03-21T00:24:50;101065.06;;;8.37;48.84
39954;BME280;25631;51.516;-0.470;2023-03-21T00:27:27;101061.20;;;8.59;48.84
39954;BME280;25631;51.516;-0.470;2023-03-21T00:30:04;101060.09;;;8.51;48.83
39954;BME280;25631;51.516;-0.470;2023-03-21T00:32:41;101059.89;;;8.58;48.88
39954;BME280;25631;51.516;-0.470;2023-03-21T00:35:18;101058.36;;;8.31;48.91
39954;BME280;25631;51.516;-0.470;2023-03-21T00:37:54;101054.69;;;8.21;48.84
39954;BME280;25631;51.516;-0.470;2023-03-21T00:40:30;101049.74;;;8.55;48.77
39954;BME280;25631;51.516;-0.470;2023-03-21T00:43:07;101045.66;;;8.59;48.78
39954;BME280;25631;51.516;-0.470;2023-03-21T00:45:44;101040.55;;;8.60;48.76
39954;BME280;25631;51.516;-0.470;2023-03-21T00:48:20;101042.60;;;8.58;48.77
39954;BME280;25631;51.516;-0.470;2023-03-21T00:50:57;101040.39;;;8.56;48.78
39954;BME280;25631;51.516;-0.470;2023-03-21T00:53:34;101035.43;;;8.36;48.86
39954;BME280;25631;51.516;-0.470;2023-03-21T00:56:10;101029.08;;;8.45;48.84
39954;BME280;25631;51.516;-0.470;2023-03-21T00:58:47;101016.68;;;8.03;48.98
39954;BME280;25631;51.516;-0.470;2023-03-21T01:01:24;101018.25;;;8.36;48.97
39954;BME280;25631;51.516;-0.470;2023-03-21T01:04:01;101010.80;;;8.49;48.82
39954;BME280;25631;51.516;-0.470;2023-03-21T01:06:37;101006.78;;;8.44;48.85
39954;BME280;25631;51.516;-0.470;2023-03-21T01:09:17;100999.01;;;8.49;48.78
39954;BME280;25631;51.516;-0.470;2023-03-21T01:11:53;100988.07;;;8.62;48.69
39954;BME280;25631;51.516;-0.470;2023-03-21T01:14:30;100982.06;;;8.43;48.70
39954;BME280;25631;51.516;-0.470;2023-03-21T01:17:06;100983.84;;;8.40;48.71
39954;BME280;25631;51.516;-0.470;2023-03-21T01:19:43;100982.57;;;8.47;48.53
39954;BME280;25631;51.516;-0.470;2023-03-21T01:22:19;100984.01;;;8.67;48.54
39954;BME280;25631;51.516;-0.470;2023-03-21T01:24:56;100981.11;;;8.49;48.60
39954;BME280;25631;51.516;-0.470;2023-03-21T01:27:32;100982.30;;;8.42;48.56
39954;BME280;25631;51.516;-0.470;2023-03-21T01:30:10;100986.54;;;8.52;48.53
39954;BME280;25631;51.516;-0.470;2023-03-21T01:32:47;100979.37;;;8.28;48.68
39954;BME280;25631;51.516;-0.470;2023-03-21T01:35:23;100973.20;;;8.30;48.73
39954;BME280;25631;51.516;-0.470;2023-03-21T01:38:00;100967.09;;;8.23;48.69
39954;BME280;25631;51.516;-0.470;2023-03-21T01:40:37;100965.11;;;8.35;48.78
39954;BME280;25631;51.516;-0.470;2023-03-21T01:43:22;100966.79;;;8.28;48.69
39954;BME280;25631;51.516;-0.470;2023-03-21T01:46:44;100967.22;;;8.18;48.84
39954;BME280;25631;51.516;-0.470;2023-03-21T01:49:24;100963.85;;;8.05;48.77
39954;BME280;25631;51.516;-0.470;2023-03-21T01:52:05;100956.61;;;8.18;48.66
39954;BME280;25631;51.516;-0.470;2023-03-21T01:54:43;100959.50;;;8.32;48.56
39954;BME280;25631;51.516;-0.470;2023-03-21T01:57:27;100961.93;;;8.29;48.57
39954;BME280;25631;51.516;-0.470;2023-03-21T02:00:06;100949.75;;;8.12;48.49
39954;BME280;25631;51.516;-0.470;2023-03-21T02:02:44;100949.03;;;8.11;48.49
39954;BME280;25631;51.516;-0.470;2023-03-21T02:05:27;100944.39;;;8.46;48.50
39954;BME280;25631;51.516;-0.470;2023-03-21T02:08:05;100942.99;;;8.21;48.35
39954;BME280;25631;51.516;-0.470;2023-03-21T02:10:42;100932.85;;;8.22;48.26
39954;BME280;25631;51.516;-0.470;2023-03-21T02:13:21;100928.27;;;8.36;48.10
39954;BME280;25631;51.516;-0.470;2023-03-21T02:16:01;100930.07;;;7.97;48.07
39954;BME280;25631;51.516;-0.470;2023-03-21T02:18:46;100926.15;;;8.18;48.02
39954;BME280;25631;51.516;-0.470;2023-03-21T02:21:54;100926.68;;;8.10;48.04
39954;BME280;25631;51.516;-0.470;2023-03-21T02:25:29;100918.05;;;8.15;48.00
39954;BME280;25631;51.516;-0.470;2023-03-21T02:28:12;100918.99;;;8.04;48.11
39954;BME280;25631;51.516;-0.470;2023-03-21T02:31:27;100912.98;;;7.94;48.10
39954;BME280;25631;51.516;-0.470;2023-03-21T02:34:24;100910.72;;;8.08;47.97
39954;BME280;25631;51.516;-0.470;2023-03-21T02:37:15;100903.58;;;8.20;48.03
39954;BME280;25631;51.516;-0.470;2023-03-21T02:40:04;100892.63;;;8.23;47.99
39954;BME280;25631;51.516;-0.470;2023-03-21T02:42:50;100886.66;;;7.75;48.12
39954;BME280;25631;51.516;-0.470;2023-03-21T02:45:32;100886.72;;;7.69;48.09
39954;BME280;25631;51.516;-0.470;2023-03-21T02:48:14;100883.47;;;7.88;47.97
39954;BME280;25631;51.516;-0.470;2023-03-21T02:50:54;100884.27;;;7.86;47.90
39954;BME280;25631;51.516;-0.470;2023-03-21T02:53:35;100879.28;;;7.87;48.02
39954;BME280;25631;51.516;-0.470;2023-03-21T02:56:13;100881.41;;;7.95;48.01
39954;BME280;25631;51.516;-0.470;2023-03-21T02:58:50;100874.70;;;7.79;48.04
39954;BME280;25631;51.516;-0.470;2023-03-21T03:01:27;100865.67;;;8.07;48.01
39954;BME280;25631;51.516;-0.470;2023-03-21T03:04:15;100868.76;;;7.79;48.15
39954;BME280;25631;51.516;-0.470;2023-03-21T03:07:08;100868.31;;;7.64;48.02
39954;BME280;25631;51.516;-0.470;2023-03-21T03:09:59;100858.65;;;7.88;48.01
39954;BME280;25631;51.516;-0.470;2023-03-21T03:12:44;100858.83;;;7.87;47.99
39954;BME280;25631;51.516;-0.470;2023-03-21T03:15:31;100860.67;;;7.94;47.92
39954;BME280;25631;51.516;-0.470;2023-03-21T03:18:13;100859.64;;;7.85;47.91
39954;BME280;25631;51.516;-0.470;2023-03-21T03:21:01;100857.67;;;7.78;47.85
39954;BME280;25631;51.516;-0.470;2023-03-21T03:23:43;100855.50;;;7.74;47.81
39954;BME280;25631;51.516;-0.470;2023-03-21T03:26:24;100848.97;;;7.67;47.79
39954;BME280;25631;51.516;-0.470;2023-03-21T03:29:04;100845.71;;;7.68;47.77
39954;BME280;25631;51.516;-0.470;2023-03-21T03:31:46;100837.95;;;7.66;47.70
39954;BME280;25631;51.516;-0.470;2023-03-21T03:34:27;100841.43;;;7.57;47.58
39954;BME280;25631;51.516;-0.470;2023-03-21T03:37:07;100843.11;;;7.88;47.55
39954;BME280;25631;51.516;-0.470;2023-03-21T03:39:50;100838.80;;;7.66;47.56
39954;BME280;25631;51.516;-0.470;2023-03-21T03:42:33;100832.93;;;8.01;47.51
39954;BME280;25631;51.516;-0.470;2023-03-21T03:45:12;100826.01;;;7.85;47.54
39954;BME280;25631;51.516;-0.470;2023-03-21T03:47:52;100823.17;;;7.45;47.62
39954;BME280;25631;51.516;-0.470;2023-03-21T03:50:33;100809.69;;;7.32;47.58
39954;BME280;25631;51.516;-0.470;2023-03-21T03:53:18;100802.95;;;7.92;47.46
39954;BME280;25631;51.516;-0.470;2023-03-21T03:55:56;100816.63;;;7.77;47.49
39954;BME280;25631;51.516;-0.470;2023-03-21T03:58:34;100810.29;;;7.59;47.31
39954;BME280;25631;51.516;-0.470;2023-03-21T04:01:11;100811.97;;;7.48;47.41
39954;BME280;25631;51.516;-0.470;2023-03-21T04:03:48;100805.91;;;7.52;47.39
39954;BME280;25631;51.516;-0.470;2023-03-21T04:06:26;100801.94;;;7.28;47.56
39954;BME280;25631;51.516;-0.470;2023-03-21T04:09:02;100796.42;;;7.46;47.50
39954;BME280;25631;51.516;-0.470;2023-03-21T04:11:39;100795.43;;;7.66;47.56
39954;BME280;25631;51.516;-0.470;2023-03-21T04:14:15;100799.31;;;7.60;47.44
39954;BME280;25631;51.516;-0.470;2023-03-21T04:16:52;100805.60;;;7.31;47.27
39954;BME280;25631;51.516;-0.470;2023-03-21T04:19:28;100795.78;;;7.55;47.23
39954;BME280;25631;51.516;-0.470;2023-03-21T04:22:05;100795.76;;;7.58;47.48
39954;BME280;25631;51.516;-0.470;2023-03-21T04:24:41;100794.38;;;7.55;47.55
39954;BME280;25631;51.516;-0.470;2023-03-21T04:27:18;100788.09;;;7.49;47.64
39954;BME280;25631;51.516;-0.470;2023-03-21T04:29:54;100787.52;;;7.50;47.68
39954;BME280;25631;51.516;-0.470;2023-03-21T04:32:31;100791.34;;;7.59;47.80
39954;BME280;25631;51.516;-0.470;2023-03-21T04:35:08;100794.45;;;7.34;47.64
39954;BME280;25631;51.516;-0.470;2023-03-21T04:37:46;100792.70;;;7.36;47.77
39954;BME280;25631;51.516;-0.470;2023-03-21T04:40:22;100793.44;;;7.44;48.06
39954;BME280;25631;51.516;-0.470;2023-03-21T04:42:59;100791.96;;;7.18;48.03
39954;BME280;25631;51.516;-0.470;2023-03-21T04:45:35;100788.32;;;6.97;48.34
39954;BME280;25631;51.516;-0.470;2023-03-21T04:48:11;100780.48;;;7.32;48.24
39954;BME280;25631;51.516;-0.470;2023-03-21T04:50:48;100772.65;;;7.21;48.21
39954;BME280;25631;51.516;-0.470;2023-03-21T04:53:25;100771.06;;;7.16;48.37
39954;BME280;25631;51.516;-0.470;2023-03-21T04:56:01;100766.85;;;7.40;48.27
39954;BME280;25631;51.516;-0.470;2023-03-21T04:58:38;100758.61;;;7.37;48.25
39954;BME280;25631;51.516;-0.470;2023-03-21T05:01:14;100758.99;;;7.09;48.43
39954;BME280;25631;51.516;-0.470;2023-03-21T05:03:51;100760.21;;;7.23;48.63
39954;BME280;25631;51.516;-0.470;2023-03-21T05:06:28;100755.77;;;7.10;48.73
39954;BME280;25631;51.516;-0.470;2023-03-21T05:09:05;100757.88;;;7.21;48.74
39954;BME280;25631;51.516;-0.470;2023-03-21T05:11:42;100755.17;;;7.44;48.55
39954;BME280;25631;51.516;-0.470;2023-03-21T05:14:20;100748.81;;;7.04;48.72
39954;BME280;25631;51.516;-0.470;2023-03-21T05:16:57;100751.72;;;7.20;48.69
39954;BME280;25631;51.516;-0.470;2023-03-21T05:19:34;100752.72;;;7.04;48.68
39954;BME280;25631;51.516;-0.470;2023-03-21T05:22:11;100758.31;;;7.14;48.81
39954;BME280;25631;51.516;-0.470;2023-03-21T05:24:47;100758.92;;;7.00;48.90
39954;BME280;25631;51.516;-0.470;2023-03-21T05:27:23;100757.58;;;7.00;49.08
39954;BME280;25631;51.516;-0.470;2023-03-21T05:30:03;100750.15;;;7.25;49.02
39954;BME280;25631;51.516;-0.470;2023-03-21T05:32:40;100751.52;;;7.20;49.11
39954;BME280;25631;51.516;-0.470;2023-03-21T05:35:17;100750.73;;;6.82;48.98
39954;BME280;25631;51.516;-0.470;2023-03-21T05:37:53;100745.37;;;7.35;48.81
39954;BME280;25631;51.516;-0.470;2023-03-21T05:40:30;100740.47;;;7.02;49.03
39954;BME280;25631;51.516;-0.470;2023-03-21T05:43:06;100737.45;;;7.09;48.89
39954;BME280;25631;51.516;-0.470;2023-03-21T05:45:43;100733.31;;;6.87;49.01
39954;BME280;25631;51.516;-0.470;2023-03-21T05:48:19;100729.30;;;6.93;48.93
39954;BME280;25631;51.516;-0.470;2023-03-21T05:50:56;100729.42;;;6.96;49.09
39954;BME280;25631;51.516;-0.470;2023-03-21T05:53:32;100728.27;;;6.82;49.08
39954;BME280;25631;51.516;-0.470;2023-03-21T05:56:09;100722.16;;;6.64;49.40
39954;BME280;25631;51.516;-0.470;2023-03-21T05:58:45;100726.67;;;6.88;49.31
39954;BME280;25631;51.516;-0.470;2023-03-21T06:01:22;100727.53;;;6.75;49.48
39954;BME280;25631;51.516;-0.470;2023-03-21T06:03:58;100725.45;;;6.82;49.39
39954;BME280;25631;51.516;-0.470;2023-03-21T06:06:35;100723.45;;;6.49;49.54
39954;BME280;25631;51.516;-0.470;2023-03-21T06:09:11;100724.74;;;6.72;49.52
39954;BME280;25631;51.516;-0.470;2023-03-21T06:11:49;100727.49;;;6.61;49.63
39954;BME280;25631;51.516;-0.470;2023-03-21T06:14:27;100728.33;;;6.59;49.74
39954;BME280;25631;51.516;-0.470;2023-03-21T06:17:03;100723.81;;;6.63;49.73
39954;BME280;25631;51.516;-0.470;2023-03-21T06:19:40;100726.37;;;6.98;49.78
39954;BME280;25631;51.516;-0.470;2023-03-21T06:22:16;100724.97;;;6.63;49.78
39954;BME280;25631;51.516;-0.470;2023-03-21T06:24:53;100729.25;;;7.31;49.81
39954;BME280;25631;51.516;-0.470;2023-03-21T06:27:29;100730.54;;;6.99;49.66
39954;BME280;25631;51.516;-0.470;2023-03-21T06:30:07;100732.88;;;6.86;49.73
39954;BME280;25631;51.516;-0.470;2023-03-21T06:32:43;100727.58;;;6.75;49.82
39954;BME280;25631;51.516;-0.470;2023-03-21T06:35:20;100732.87;;;6.77;49.94
39954;BME280;25631;51.516;-0.470;2023-03-21T06:37:56;100735.35;;;6.81;49.99
39954;BME280;25631;51.516;-0.470;2023-03-21T06:40:33;100731.40;;;6.83;49.83
39954;BME280;25631;51.516;-0.470;2023-03-21T06:43:09;100732.57;;;6.86;49.96
39954;BME280;25631;51.516;-0.470;2023-03-21T06:45:46;100729.76;;;6.75;49.99
39954;BME280;25631;51.516;-0.470;2023-03-21T06:48:22;100725.68;;;6.85;49.90
39954;BME280;25631;51.516;-0.470;2023-03-21T06:50:59;100721.67;;;6.85;49.76
39954;BME280;25631;51.516;-0.470;2023-03-21T06:53:36;100715.51;;;6.92;49.90
39954;BME280;25631;51.516;-0.470;2023-03-21T06:56:13;100716.93;;;6.21;49.89
39954;BME280;25631;51.516;-0.470;2023-03-21T06:58:50;100716.59;;;6.80;49.79
39954;BME280;25631;51.516;-0.470;2023-03-21T07:01:27;100718.62;;;6.80;49.81
39954;BME280;25631;51.516;-0.470;2023-03-21T07:04:03;100721.94;;;7.43;49.66
39954;BME280;25631;51.516;-0.470;2023-03-21T07:06:40;100717.96;;;7.06;49.69
39954;BME280;25631;51.516;-0.470;2023-03-21T07:09:16;100715.62;;;7.01;49.66
39954;BME280;25631;51.516;-0.470;2023-03-21T07:11:53;100716.28;;;6.92;49.69
39954;BME280;25631;51.516;-0.470;2023-03-21T07:14:30;100710.73;;;7.10;49.82
39954;BME280;25631;51.516;-0.470;2023-03-21T07:17:06;100711.07;;;6.76;50.02
39954;BME280;25631;51.516;-0.470;2023-03-21T07:19:43;100713.24;;;6.92;50.13
39954;BME280;25631;51.516;-0.470;2023-03-21T07:22:19;100705.65;;;6.89;50.19
39954;BME280;25631;51.516;-0.470;2023-03-21T07:24:56;100709.52;;;6.92;50.13
39954;BME280;25631;51.516;-0.470;2023-03-21T07:27:32;100710.24;;;7.15;50.07
39954;BME280;25631;51.516;-0.470;2023-03-21T07:30:10;100715.60;;;7.04;50.11
39954;BME280;25631;51.516;-0.470;2023-03-21T07:32:47;100716.20;;;7.23;50.01
39954;BME280;25631;51.516;-0.470;2023-03-21T07:35:25;100717.81;;;7.20;49.98
39954;BME280;25631;51.516;-0.470;2023-03-21T07:38:01;100722.41;;;7.22;49.90
39954;BME280;25631;51.516;-0.470;2023-03-21T07:40:38;100723.20;;;7.37;49.93
39954;BME280;25631;51.516;-0.470;2023-03-21T07:43:15;100719.83;;;7.44;50.03
39954;BME280;25631;51.516;-0.470;2023-03-21T07:45:56;100713.89;;;7.02;50.12
39954;BME280;25631;51.516;-0.470;2023-03-21T07:48:33;100717.18;;;7.33;49.93
39954;BME280;25631;51.516;-0.470;2023-03-21T07:51:09;100717.42;;;7.27;50.03
39954;BME280;25631;51.516;-0.470;2023-03-21T07:53:46;100710.18;;;7.23;50.22
39954;BME280;25631;51.516;-0.470;2023-03-21T07:56:22;100711.67;;;7.04;50.42
39954;BME280;25631;51.516;-0.470;2023-03-21T07:58:58;100702.61;;;6.90;50.50
39954;BME280;25631;51.516;-0.470;2023-03-21T08:01:35;100707.94;;;6.97;50.66
39954;BME280;25631;51.516;-0.470;2023-03-21T08:04:16;100703.84;;;7.01;50.62
39954;BME280;25631;51.516;-0.470;2023-03-21T08:06:53;100704.97;;;7.09;50.63
39954;BME280;25631;51.516;-0.470;2023-03-21T08:09:29;100703.98;;;6.93;50.70
39954;BME280;25631;51.516;-0.470;2023-03-21T08:12:06;100706.10;;;7.19;50.73
39954;BME280;25631;51.516;-0.470;2023-03-21T08:14:43;100706.92;;;7.32;50.66
39954;BME280;25631;51.516;-0.470;2023-03-21T08:17:19;100706.91;;;7.64;50.69
39954;BME280;25631;51.516;-0.470;2023-03-21T08:19:55;100714.52;;;7.35;50.72
39954;BME280;25631;51.516;-0.470;2023-03-21T08:22:32;100716.03;;;7.37;50.49
39954;BME280;25631;51.516;-0.470;2023-03-21T08:25:10;100720.80;;;7.64;50.53
39954;BME280;25631;51.516;-0.470;2023-03-21T08:27:49;100722.34;;;7.57;50.62
39954;BME280;25631;51.516;-0.470;2023-03-21T08:30:27;100714.05;;;7.26;50.51
39954;BME280;25631;51.516;-0.470;2023-03-21T08:33:03;100711.30;;;7.59;50.50
39954;BME280;25631;51.516;-0.470;2023-03-21T08:35:40;100702.92;;;7.23;50.73
39954;BME280;25631;51.516;-0.470;2023-03-21T08:38:16;100700.40;;;7.25;50.57
39954;BME280;25631;51.516;-0.470;2023-03-21T08:40:53;100698.36;;;7.32;50.57
39954;BME280;25631;51.516;-0.470;2023-03-21T08:43:29;100695.49;;;7.68;50.55
39954;BME280;25631;51.516;-0.470;2023-03-21T08:46:06;100695.54;;;7.40;50.51
39954;BME280;25631;51.516;-0.470;2023-03-21T08:48:42;100700.55;;;7.76;50.60
39954;BME280;25631;51.516;-0.470;2023-03-21T08:51:19;100706.23;;;7.79;50.43
39954;BME280;25631;51.516;-0.470;2023-03-21T08:53:55;100697.58;;;7.73;50.39
39954;BME280;25631;51.516;-0.470;2023-03-21T08:56:32;100690.95;;;7.83;50.46
39954;BME280;25631;51.516;-0.470;2023-03-21T08:59:09;100693.08;;;8.23;50.24
39954;BME280;25631;51.516;-0.470;2023-03-21T09:01:45;100689.26;;;8.27;49.97
39954;BME280;25631;51.516;-0.470;2023-03-21T09:04:22;100680.09;;;8.33;49.44
39954;BME280;25631;51.516;-0.470;2023-03-21T09:06:58;100678.88;;;8.45;49.52
39954;BME280;25631;51.516;-0.470;2023-03-21T09:09:35;100674.38;;;8.55;49.18
39954;BME280;25631;51.516;-0.470;2023-03-21T09:12:11;100678.33;;;8.51;49.05
39954;BME280;25631;51.516;-0.470;2023-03-21T09:14:48;100679.00;;;8.47;48.84
39954;BME280;25631;51.516;-0.470;2023-03-21T09:17:24;100678.09;;;8.50;48.93
39954;BME280;25631;51.516;-0.470;2023-03-21T09:20:01;100681.96;;;8.47;48.92
39954;BME280;25631;51.516;-0.470;2023-03-21T09:22:37;100681.52;;;8.39;49.47
39954;BME280;25631;51.516;-0.470;2023-03-21T09:25:15;100668.05;;;8.32;49.56
39954;BME280;25631;51.516;-0.470;2023-03-21T09:27:52;100667.64;;;8.32;49.54
39954;BME280;25631;51.516;-0.470;2023-03-21T09:30:29;100665.73;;;8.17;49.55
39954;BME280;25631;51.516;-0.470;2023-03-21T09:33:06;100675.75;;;8.33;49.81
39954;BME280;25631;51.516;-0.470;2023-03-21T09:35:42;100675.60;;;8.33;49.49
39954;BME280;25631;51.516;-0.470;2023-03-21T09:38:19;100677.72;;;8.59;49.37
39954;BME280;25631;51.516;-0.470;2023-03-21T09:41:04;100674.69;;;8.38;49.48
39954;BME280;25631;51.516;-0.470;2023-03-21T09:43:52;100672.79;;;8.57;49.36
39954;BME280;25631;51.516;-0.470;2023-03-21T09:46:37;100673.74;;;8.67;49.15
39954;BME280;25631;51.516;-0.470;2023-03-21T09:49:20;100677.74;;;8.76;49.05
39954;BME280;25631;51.516;-0.470;2023-03-21T09:51:59;100677.08;;;8.79;49.08
39954;BME280;25631;51.516;-0.470;2023-03-21T09:54:39;100677.82;;;8.63;49.22
39954;BME280;25631;51.516;-0.470;2023-03-21T09:57:25;100680.00;;;8.61;49.32
39954;BME280;25631;51.516;-0.470;2023-03-21T10:00:10;100686.90;;;8.69;49.39
39954;BME280;25631;51.516;-0.470;2023-03-21T10:02:50;100687.13;;;8.82;49.64
39954;BME280;25631;51.516;-0.470;2023-03-21T10:05:29;100685.71;;;8.58;49.87
39954;BME280;25631;51.516;-0.470;2023-03-21T10:08:11;100689.45;;;8.66;49.75
39954;BME280;25631;51.516;-0.470;2023-03-21T10:10:52;100690.70;;;8.74;49.81
39954;BME280;25631;51.516;-0.470;2023-03-21T10:13:33;100681.39;;;8.83;49.90
39954;BME280;25631;51.516;-0.470;2023-03-21T10:16:14;100680.36;;;8.70;49.73
39954;BME280;25631;51.516;-0.470;2023-03-21T10:18:51;100677.72;;;8.85;49.42
39954;BME280;25631;51.516;-0.470;2023-03-21T10:21:30;100671.01;;;8.98;49.00
39954;BME280;25631;51.516;-0.470;2023-03-21T10:24:10;100663.41;;;8.82;48.47
39954;BME280;25631;51.516;-0.470;2023-03-21T10:26:50;100664.90;;;9.06;48.04
39954;BME280;25631;51.516;-0.470;2023-03-21T10:29:31;100662.19;;;9.13;47.83
39954;BME280;25631;51.516;-0.470;2023-03-21T10:32:14;100661.54;;;9.06;47.15
39954;BME280;25631;51.516;-0.470;2023-03-21T10:34:54;100660.43;;;9.04;46.60
39954;BME280;25631;51.516;-0.470;2023-03-21T10:37:33;100653.95;;;8.89;46.22
39954;BME280;25631;51.516;-0.470;2023-03-21T10:40:14;100657.42;;;9.29;45.80
39954;BME280;25631;51.516;-0.470;2023-03-21T10:42:53;100649.78;;;9.16;45.48
39954;BME280;25631;51.516;-0.470;2023-03-21T10:45:33;100644.52;;;9.54;45.30
39954;BME280;25631;51.516;-0.470;2023-03-21T10:48:10;100639.97;;;8.60;45.11
39954;BME280;25631;51.516;-0.470;2023-03-21T10:50:49;100633.22;;;9.59;45.20
39954;BME280;25631;51.516;-0.470;2023-03-21T10:53:31;100635.99;;;9.41;45.25
39954;BME280;25631;51.516;-0.470;2023-03-21T10:56:10;100643.62;;;9.56;44.80
39954;BME280;25631;51.516;-0.470;2023-03-21T10:58:48;100636.15;;;9.34;44.59
39954;BME280;25631;51.516;-0.470;2023-03-21T11:01:28;100628.54;;;9.70;44.58
39954;BME280;25631;51.516;-0.470;2023-03-21T11:04:11;100628.58;;;9.87;44.57
39954;BME280;25631;51.516;-0.470;2023-03-21T11:06:52;100621.12;;;10.00;44.00
39954;BME280;25631;51.516;-0.470;2023-03-21T11:09:44;100617.65;;;9.88;43.61
39954;BME280;25631;51.516;-0.470;2023-03-21T11:12:30;100622.01;;;10.36;43.73
39954;BME280;25631;51.516;-0.470;2023-03-21T11:15:26;100607.81;;;10.26;43.39
39954;BME280;25631;51.516;-0.470;2023-03-21T11:18:13;100618.38;;;10.00;42.93
39954;BME280;25631;51.516;-0.470;2023-03-21T11:20:55;100605.40;;;10.26;43.00
39954;BME280;25631;51.516;-0.470;2023-03-21T11:23:34;100604.23;;;10.42;42.75
39954;BME280;25631;51.516;-0.470;2023-03-21T11:26:18;100603.55;;;10.34;42.33
39954;BME280;25631;51.516;-0.470;2023-03-21T11:28:56;100594.66;;;10.31;42.74
39954;BME280;25631;51.516;-0.470;2023-03-21T11:31:37;100595.74;;;10.55;42.69
39954;BME280;25631;51.516;-0.470;2023-03-21T11:34:25;100592.74;;;10.56;42.65
39954;BME280;25631;51.516;-0.470;2023-03-21T11:37:02;100591.31;;;10.81;42.81
39954;BME280;25631;51.516;-0.470;2023-03-21T11:39:45;100597.60;;;10.66;42.71
39954;BME280;25631;51.516;-0.470;2023-03-21T11:42:27;100596.95;;;10.78;42.36
39954;BME280;25631;51.516;-0.470;2023-03-21T11:45:11;100599.48;;;10.57;42.23
39954;BME280;25631;51.516;-0.470;2023-03-21T11:47:51;100601.55;;;10.71;42.61
39954;BME280;25631;51.516;-0.470;2023-03-21T11:50:32;100599.48;;;10.63;42.64
39954;BME280;25631;51.516;-0.470;2023-03-21T11:53:21;100604.06;;;10.86;42.25
39954;BME280;25631;51.516;-0.470;2023-03-21T11:56:25;100611.16;;;10.89;41.65
39954;BME280;25631;51.516;-0.470;2023-03-21T11:59:13;100611.37;;;11.23;41.89
39954;BME280;25631;51.516;-0.470;2023-03-21T12:02:02;100618.00;;;10.52;42.85
39954;BME280;25631;51.516;-0.470;2023-03-21T12:04:41;100617.18;;;10.05;42.54
39954;BME280;25631;51.516;-0.470;2023-03-21T12:07:32;100605.70;;;10.44;42.52
39954;BME280;25631;51.516;-0.470;2023-03-21T12:10:31;100609.00;;;10.36;42.44
39954;BME280;25631;51.516;-0.470;2023-03-21T12:13:22;100604.73;;;10.82;42.82
39954;BME280;25631;51.516;-0.470;2023-03-21T12:16:14;100602.69;;;11.12;42.26
39954;BME280;25631;51.516;-0.470;2023-03-21T12:19:05;100610.83;;;10.94;41.97
39954;BME280;25631;51.516;-0.470;2023-03-21T12:21:55;100604.18;;;10.80;41.62
39954;BME280;25631;51.516;-0.470;2023-03-21T12:24:37;100604.09;;;10.98;41.89
39954;BME280;25631;51.516;-0.470;2023-03-21T12:27:22;100601.15;;;11.05;42.42
39954;BME280;25631;51.516;-0.470;2023-03-21T12:30:12;100597.47;;;11.22;41.45
39954;BME280;25631;51.516;-0.470;2023-03-21T12:33:03;100592.52;;;11.35;41.78
39954;BME280;25631;51.516;-0.470;2023-03-21T12:35:51;100585.74;;;10.95;41.52
39954;BME280;25631;51.516;-0.470;2023-03-21T12:38:36;100586.89;;;11.09;41.47
39954;BME280;25631;51.516;-0.470;2023-03-21T12:41:23;100590.04;;;11.34;41.98
39954;BME280;25631;51.516;-0.470;2023-03-21T12:44:03;100591.27;;;11.18;42.08
39954;BME280;25631;51.516;-0.470;2023-03-21T12:46:46;100580.50;;;11.10;42.02
39954;BME280;25631;51.516;-0.470;2023-03-21T12:49:29;100578.83;;;10.81;41.91
39954;BME280;25631;51.516;-0.470;2023-03-21T12:52:10;100579.57;;;11.10;41.43
39954;BME280;25631;51.516;-0.470;2023-03-21T12:54:51;100574.31;;;10.95;41.59
39954;BME280;25631;51.516;-0.470;2023-03-21T12:57:31;100577.04;;;10.97;41.33
39954;BME280;25631;51.516;-0.470;2023-03-21T13:00:12;100574.33;;;11.21;41.35
39954;BME280;25631;51.516;-0.470;2023-03-21T13:02:54;100572.24;;;11.11;40.94
39954;BME280;25631;51.516;-0.470;2023-03-21T13:05:34;100571.84;;;10.91;41.04
39954;BME280;25631;51.516;-0.470;2023-03-21T13:08:17;100566.71;;;10.66;41.43
39954;BME280;25631;51.516;-0.470;2023-03-21T13:10:57;100565.86;;;11.09;41.03
39954;BME280;25631;51.516;-0.470;2023-03-21T13:13:41;100560.25;;;11.07;41.07
39954;BME280;25631;51.516;-0.470;2023-03-21T13:16:21;100552.84;;;11.02;41.33
39954;BME280;25631;51.516;-0.470;2023-03-21T13:19:07;100551.26;;;11.60;41.30
39954;BME280;25631;51.516;-0.470;2023-03-21T13:21:50;100549.17;;;11.55;41.40
39954;BME280;25631;51.516;-0.470;2023-03-21T13:24:36;100547.29;;;11.30;41.24
39954;BME280;25631;51.516;-0.470;2023-03-21T13:27:21;100547.12;;;11.11;41.34
39954;BME280;25631;51.516;-0.470;2023-03-21T13:30:04;100553.67;;;11.49;41.25
39954;BME280;25631;51.516;-0.470;2023-03-21T13:32:42;100548.68;;;11.15;40.60
39954;BME280;25631;51.516;-0.470;2023-03-21T13:35:21;100545.16;;;11.64;40.80
39954;BME280;25631;51.516;-0.470;2023-03-21T13:38:02;100544.93;;;11.72;40.83
39954;BME280;25631;51.516;-0.470;2023-03-21T13:40:43;100546.18;;;12.07;40.58
39954;BME280;25631;51.516;-0.470;2023-03-21T13:43:44;100542.37;;;12.28;40.30
39954;BME280;25631;51.516;-0.470;2023-03-21T13:46:43;100539.44;;;12.51;39.54
39954;BME280;25631;51.516;-0.470;2023-03-21T13:49:36;100542.45;;;12.20;39.31
39954;BME280;25631;51.516;-0.470;2023-03-21T13:52:26;100542.30;;;12.43;39.05
39954;BME280;25631;51.516;-0.470;2023-03-21T13:55:03;100538.08;;;12.11;39.12